createdAt,value
2018-11-05T00:00:46.696Z,90.57
2018-11-05T00:03:15.582Z,91.45
2018-11-05T00:05:47.874Z,91.03
2018-11-05T00:08:23.465Z,90.40
2018-11-05T00:10:58.088Z,90.52
2018-11-05T00:13:39.680Z,91.32
2018-11-05T00:16:20.608Z,91.06
2018-11-05T00:18:49.552Z,90.85
2018-11-05T00:21:18.455Z,90.91
2018-11-05T00:23:47.352Z,90.75
2018-11-05T00:26:16.213Z,90.89
2018-11-05T00:28:57.896Z,90.90
2018-11-05T00:31:27.834Z,91.27
2018-11-05T00:33:56.762Z,90.96
2018-11-05T00:36:25.635Z,91.77
2018-11-05T00:38:54.526Z,92.27
2018-11-05T00:41:45.847Z,91.20
2018-11-05T00:44:14.728Z,90.81
2018-11-05T00:46:43.668Z,91.63
2018-11-05T00:49:22.309Z,91.60
2018-11-05T00:51:51.192Z,91.10
2018-11-05T00:54:22.407Z,90.53
2018-11-05T00:56:53.443Z,91.33
2018-11-05T00:59:22.313Z,90.51
2018-11-05T01:01:51.216Z,90.89
2018-11-05T01:04:25.929Z,90.51
2018-11-05T01:06:57.960Z,90.74
2018-11-05T01:12:20.254Z,91.35
2018-11-05T01:14:49.144Z,90.34
2018-11-05T01:17:18.038Z,90.45
2018-11-05T01:19:46.941Z,90.64
2018-11-05T01:22:15.847Z,90.47
2018-11-05T01:24:44.915Z,90.62
2018-11-05T01:27:13.848Z,90.93
2018-11-05T01:29:48.331Z,91.12
2018-11-05T01:32:17.230Z,91.03
2018-11-05T01:34:46.082Z,90.92
2018-11-05T01:40:21.629Z,90.21
2018-11-05T01:42:55.820Z,90.59
2018-11-05T01:45:24.674Z,90.98
2018-11-05T01:47:53.525Z,90.38
2018-11-05T01:50:22.440Z,90.77
2018-11-05T01:52:56.840Z,90.13
2018-11-05T01:55:25.700Z,89.63
2018-11-05T01:57:54.596Z,90.62
2018-11-05T02:00:23.512Z,90.71
2018-11-05T02:02:52.414Z,90.46
2018-11-05T02:05:21.308Z,90.49
2018-11-05T02:07:50.251Z,91.24
2018-11-05T02:10:19.790Z,90.78
2018-11-05T02:12:48.612Z,91.00
2018-11-05T02:15:22.391Z,90.88
2018-11-05T02:17:51.447Z,90.34
2018-11-05T02:20:20.317Z,90.95
2018-11-05T02:22:55.025Z,90.03
2018-11-05T02:25:23.950Z,90.74
2018-11-05T02:27:52.824Z,89.80
2018-11-05T02:30:21.765Z,90.49
2018-11-05T02:32:50.704Z,90.46
2018-11-05T02:35:19.646Z,90.53
2018-11-05T02:37:55.301Z,90.56
2018-11-05T02:40:24.231Z,90.36
2018-11-05T02:42:53.134Z,90.38
2018-11-05T02:45:42.462Z,89.40
2018-11-05T02:48:22.934Z,89.91
2018-11-05T02:50:51.821Z,90.22
2018-11-05T02:53:30.380Z,90.35
2018-11-05T02:56:12.738Z,90.93
2018-11-05T02:58:41.704Z,90.50
2018-11-05T03:01:10.558Z,90.44
2018-11-05T03:03:39.462Z,89.72
2018-11-05T03:06:10.362Z,90.23
2018-11-05T03:08:40.379Z,89.84
2018-11-05T03:11:10.308Z,89.68
2018-11-05T03:13:39.293Z,90.04
2018-11-05T03:16:27.015Z,89.43
2018-11-05T03:18:55.942Z,89.42
2018-11-05T03:21:24.816Z,89.35
2018-11-05T03:23:53.747Z,89.75
2018-11-05T03:26:31.218Z,90.04
2018-11-05T03:29:17.210Z,89.76
2018-11-05T03:31:48.203Z,90.02
2018-11-05T03:34:17.068Z,89.98
2018-11-05T03:36:45.971Z,89.85
2018-11-05T03:39:27.026Z,89.96
2018-11-05T03:41:55.921Z,89.24
2018-11-05T03:44:24.810Z,89.49
2018-11-05T03:46:58.175Z,89.42
2018-11-05T03:49:27.017Z,88.98
2018-11-05T03:51:55.926Z,89.75
2018-11-05T03:54:24.826Z,89.35
2018-11-05T03:56:53.743Z,89.95
2018-11-05T03:59:22.626Z,90.95
2018-11-05T04:02:12.464Z,90.29
2018-11-05T04:04:41.594Z,89.45
2018-11-05T04:07:10.497Z,90.60
2018-11-05T04:09:43.113Z,89.62
2018-11-05T04:12:12.071Z,90.26
2018-11-05T04:14:40.950Z,90.37
2018-11-05T04:17:10.970Z,90.47
2018-11-05T04:19:39.868Z,90.34
2018-11-05T04:22:08.717Z,90.75
2018-11-05T04:24:37.592Z,90.38
2018-11-05T04:27:14.176Z,90.93
2018-11-05T04:29:51.062Z,90.86
2018-11-05T04:32:39.191Z,90.49
2018-11-05T04:35:21.197Z,91.02
2018-11-05T04:38:00.374Z,90.79
2018-11-05T04:40:30.446Z,91.08
2018-11-05T04:42:59.335Z,90.96
2018-11-05T04:45:33.305Z,91.22
2018-11-05T04:48:18.488Z,90.98
2018-11-05T04:50:54.640Z,91.18
2018-11-05T04:53:30.029Z,91.49
2018-11-05T04:56:06.122Z,91.14
2018-11-05T05:01:28.101Z,91.51
2018-11-05T05:04:01.138Z,91.92
2018-11-05T05:06:42.319Z,91.06
2018-11-05T05:09:22.289Z,91.57
2018-11-05T05:11:57.316Z,91.38
2018-11-05T05:14:34.598Z,92.12
2018-11-05T05:17:14.228Z,91.68
2018-11-05T05:19:48.556Z,91.50
2018-11-05T05:22:17.569Z,91.16
2018-11-05T05:24:46.573Z,90.76
2018-11-05T05:27:15.452Z,91.44
2018-11-05T05:29:44.400Z,90.78
2018-11-05T05:32:15.321Z,90.81
2018-11-05T05:34:54.304Z,92.53
2018-11-05T05:37:35.232Z,90.96
2018-11-05T05:40:09.422Z,91.43
2018-11-05T05:42:39.171Z,91.79
2018-11-05T05:45:10.835Z,91.46
2018-11-05T05:47:39.917Z,91.10
2018-11-05T05:50:11.502Z,90.84
2018-11-05T05:52:45.509Z,90.29
2018-11-05T05:55:14.960Z,91.13
2018-11-05T05:57:44.906Z,90.70
2018-11-05T06:00:15.660Z,90.58
2018-11-05T06:02:56.325Z,91.27
2018-11-05T06:05:25.330Z,90.04
2018-11-05T06:07:54.225Z,90.68
2018-11-05T06:10:23.125Z,90.91
2018-11-05T06:12:52.040Z,90.81
2018-11-05T06:15:22.053Z,90.65
2018-11-05T06:17:50.936Z,90.66
2018-11-05T06:20:20.605Z,91.04
2018-11-05T06:22:56.702Z,91.37
2018-11-05T06:25:25.586Z,92.05
2018-11-05T06:27:54.527Z,91.72
2018-11-05T06:30:23.383Z,91.31
2018-11-05T06:36:09.108Z,90.75
2018-11-05T06:38:37.987Z,91.36
2018-11-05T06:41:07.507Z,91.30
2018-11-05T06:43:36.424Z,90.76
2018-11-05T06:46:05.641Z,90.82
2018-11-05T06:48:51.058Z,91.22
2018-11-05T06:51:33.185Z,91.23
2018-11-05T06:54:02.781Z,91.11
2018-11-05T06:56:37.655Z,91.27
2018-11-05T06:59:14.059Z,91.83
2018-11-05T07:01:48.575Z,91.24
2018-11-05T07:04:20.611Z,91.56
2018-11-05T07:06:49.690Z,91.61
2018-11-05T07:09:20.748Z,91.83
2018-11-05T07:12:02.059Z,91.35
2018-11-05T07:14:32.093Z,91.21
2018-11-05T07:17:04.643Z,91.60
2018-11-05T07:19:51.573Z,91.96
2018-11-05T07:22:20.468Z,91.23
2018-11-05T07:24:54.251Z,91.38
2018-11-05T07:27:33.222Z,91.97
2018-11-05T07:30:14.320Z,92.03
2018-11-05T07:32:45.670Z,91.65
2018-11-05T07:35:15.982Z,91.60
2018-11-05T07:37:46.110Z,91.50
2018-11-05T07:40:17.946Z,91.92
2018-11-05T07:43:04.242Z,91.96
2018-11-05T07:45:39.980Z,91.66
2018-11-05T07:48:08.916Z,92.12
2018-11-05T07:50:38.847Z,91.84
2018-11-05T07:53:08.768Z,91.41
2018-11-05T07:55:49.102Z,91.82
2018-11-05T07:58:21.281Z,91.01
2018-11-05T08:03:45.152Z,91.28
2018-11-05T08:06:18.485Z,90.46
2018-11-05T08:08:47.419Z,90.75
2018-11-05T08:14:14.734Z,90.63
2018-11-05T08:16:50.222Z,90.56
2018-11-05T08:19:19.140Z,90.90
2018-11-05T08:21:52.072Z,90.36
2018-11-05T08:24:21.024Z,89.69
2018-11-05T08:27:08.028Z,90.11
2018-11-05T08:29:43.826Z,89.26
2018-11-05T08:35:07.432Z,90.56
2018-11-05T08:37:38.380Z,90.88
2018-11-05T08:40:20.369Z,90.46
2018-11-05T08:42:50.122Z,91.15
2018-11-05T08:45:20.308Z,91.07
2018-11-05T08:48:00.194Z,90.93
2018-11-05T08:50:29.278Z,92.32
2018-11-05T08:52:58.068Z,91.00
2018-11-05T08:55:27.531Z,90.91
2018-11-05T08:57:56.476Z,91.00
2018-11-05T09:00:30.635Z,91.15
2018-11-05T09:02:59.936Z,92.04
2018-11-05T09:05:33.051Z,90.94
2018-11-05T09:08:01.973Z,90.07
2018-11-05T09:10:54.717Z,91.28
2018-11-05T09:13:23.316Z,93.51
2018-11-05T09:15:52.169Z,89.62
2018-11-05T09:18:21.126Z,90.02
2018-11-05T09:21:00.335Z,90.87
2018-11-05T09:23:29.338Z,90.14
2018-11-05T09:25:58.220Z,89.84
2018-11-05T09:28:27.080Z,89.89
2018-11-05T09:31:08.789Z,89.24
2018-11-05T09:33:39.722Z,90.03
2018-11-05T09:36:08.591Z,89.18
2018-11-05T09:38:39.574Z,90.29
2018-11-05T09:41:10.520Z,89.71
2018-11-05T09:43:49.844Z,89.50
2018-11-05T09:46:30.677Z,90.05
2018-11-05T09:49:03.648Z,89.01
2018-11-05T09:51:33.071Z,88.88
2018-11-05T09:54:02.006Z,89.26
2018-11-05T09:56:30.993Z,88.40
2018-11-05T09:59:00.284Z,88.21
2018-11-05T10:01:34.226Z,87.78
2018-11-05T10:06:57.223Z,88.10
2018-11-05T10:09:27.163Z,88.17
2018-11-05T10:12:00.143Z,87.90
2018-11-05T10:14:29.012Z,87.69
2018-11-05T10:17:09.552Z,88.10
2018-11-05T10:19:40.494Z,87.29
2018-11-05T10:22:09.507Z,87.53
2018-11-05T10:24:38.499Z,87.92
2018-11-05T10:27:07.358Z,88.01
2018-11-05T10:29:36.303Z,87.41
2018-11-05T10:32:09.081Z,87.64
2018-11-05T10:34:38.089Z,88.34
2018-11-05T10:37:07.138Z,88.21
2018-11-05T10:42:46.774Z,88.38
2018-11-05T10:45:34.113Z,88.00
2018-11-05T10:48:03.050Z,87.99
2018-11-05T10:53:33.782Z,88.32
2018-11-05T10:56:02.763Z,88.29
2018-11-05T10:58:31.632Z,87.53
2018-11-05T11:01:05.902Z,87.47
2018-11-05T11:03:39.895Z,86.69
2018-11-05T11:06:26.952Z,87.97
2018-11-05T11:09:08.406Z,87.30
2018-11-05T11:11:49.379Z,86.75
2018-11-05T11:14:25.708Z,87.45
2018-11-05T11:17:02.258Z,86.30
2018-11-05T11:19:42.920Z,87.14
2018-11-05T11:22:36.077Z,87.07
2018-11-05T11:25:07.420Z,86.58
2018-11-05T11:27:37.713Z,87.13
2018-11-05T11:30:11.465Z,86.85
2018-11-05T11:32:51.630Z,87.31
2018-11-05T11:35:24.492Z,87.68
2018-11-05T11:37:54.482Z,86.76
2018-11-05T11:40:28.969Z,86.88
2018-11-05T11:42:59.057Z,86.29
2018-11-05T11:45:32.566Z,86.72
2018-11-05T11:48:01.461Z,87.67
2018-11-05T11:50:31.487Z,86.98
2018-11-05T11:53:02.529Z,87.49
2018-11-05T11:55:51.153Z,86.49
2018-11-05T12:07:10.476Z,86.30
2018-11-05T12:09:45.172Z,85.77
2018-11-05T12:12:23.904Z,85.74
2018-11-05T12:15:10.893Z,85.73
2018-11-05T12:17:41.365Z,85.65
2018-11-05T12:20:17.754Z,86.37
2018-11-05T12:22:57.036Z,85.82
2018-11-05T12:25:33.483Z,86.07
2018-11-05T12:28:09.373Z,85.98
2018-11-05T12:30:43.497Z,85.79
2018-11-05T12:33:17.592Z,85.38
2018-11-05T12:36:09.210Z,85.78
2018-11-05T12:38:39.790Z,84.75
2018-11-05T12:44:10.861Z,86.38
2018-11-05T12:49:49.787Z,86.18
2018-11-05T12:52:36.743Z,85.48
2018-11-05T12:55:11.534Z,85.18
2018-11-05T12:57:43.872Z,85.61
2018-11-05T13:00:18.984Z,85.75
2018-11-05T13:02:55.479Z,85.67
2018-11-05T13:05:30.742Z,85.02
2018-11-05T13:08:05.619Z,84.08
2018-11-05T13:10:34.552Z,84.28
2018-11-05T13:13:06.855Z,84.50
2018-11-05T13:15:43.151Z,84.11
2018-11-05T13:18:12.492Z,85.24
2018-11-05T13:20:41.385Z,84.10
2018-11-05T13:23:10.249Z,85.18
2018-11-05T13:25:39.176Z,84.36
2018-11-05T13:28:08.077Z,84.13
2018-11-05T13:30:40.176Z,84.29
2018-11-05T13:33:10.074Z,84.80
2018-11-05T13:35:43.103Z,84.54
2018-11-05T13:38:12.845Z,84.97
2018-11-05T13:43:42.296Z,84.42
2018-11-05T13:46:11.406Z,85.31
2018-11-05T13:49:01.641Z,84.95
2018-11-05T13:51:31.073Z,84.99
2018-11-05T13:54:00.121Z,85.22
2018-11-05T13:59:28.607Z,85.27
2018-11-05T14:01:57.601Z,85.13
2018-11-05T14:04:29.769Z,84.82
2018-11-05T14:07:01.705Z,85.38
2018-11-05T14:09:32.974Z,84.92
2018-11-05T14:12:02.957Z,84.93
2018-11-05T14:14:35.757Z,85.79
2018-11-05T14:17:09.884Z,84.75
2018-11-05T14:19:45.281Z,84.40
2018-11-05T14:22:18.420Z,84.05
2018-11-05T14:27:58.970Z,84.67
2018-11-05T14:33:21.768Z,84.70
2018-11-05T14:36:09.489Z,85.38
2018-11-05T14:38:43.096Z,85.17
2018-11-05T14:41:11.916Z,84.58
2018-11-05T14:43:44.194Z,84.84
2018-11-05T14:46:33.180Z,84.77
2018-11-05T14:49:02.095Z,84.16
2018-11-05T14:51:30.991Z,85.39
2018-11-05T14:53:59.884Z,85.17
2018-11-05T14:56:28.793Z,85.01
2018-11-05T14:58:57.951Z,84.67
2018-11-05T15:01:26.923Z,84.97
2018-11-05T15:06:58.978Z,84.90
2018-11-05T15:09:27.936Z,85.52
2018-11-05T15:15:00.214Z,84.83
2018-11-05T15:17:30.370Z,85.88
2018-11-05T15:19:59.726Z,85.99
2018-11-05T15:22:30.187Z,87.00
2018-11-05T15:25:05.784Z,86.44
2018-11-05T15:27:35.152Z,85.95
2018-11-05T15:30:18.217Z,87.01
2018-11-05T15:32:47.248Z,87.62
2018-11-05T15:43:58.612Z,87.87
2018-11-05T15:46:49.554Z,88.99
2018-11-05T15:49:18.481Z,89.64
2018-11-05T15:51:51.212Z,89.59
2018-11-05T15:54:34.792Z,89.03
2018-11-05T15:57:03.497Z,89.36
2018-11-05T15:59:50.507Z,90.56
2018-11-05T16:02:25.443Z,89.86
2018-11-05T16:04:58.036Z,90.21
2018-11-05T16:07:27.010Z,89.96
2018-11-05T16:09:56.042Z,90.01
2018-11-05T16:12:30.545Z,89.29
2018-11-05T16:14:59.648Z,89.18
2018-11-05T16:17:43.160Z,89.68
2018-11-05T16:20:19.925Z,90.29
2018-11-05T16:22:56.831Z,90.39
2018-11-05T16:25:31.980Z,89.95
2018-11-05T16:31:12.744Z,90.97
2018-11-05T16:33:43.091Z,91.16
2018-11-05T16:39:13.109Z,91.06
2018-11-05T16:41:45.582Z,91.41
2018-11-05T16:44:37.610Z,90.55
2018-11-05T16:47:10.379Z,91.39
2018-11-05T16:49:43.388Z,91.23
2018-11-05T16:52:12.394Z,89.88
2018-11-05T16:54:41.384Z,90.33
2018-11-05T17:00:10.706Z,91.02
2018-11-05T17:02:40.076Z,91.09
2018-11-05T17:05:08.812Z,90.36
2018-11-05T17:07:58.043Z,90.84
2018-11-05T17:10:30.298Z,90.93
2018-11-05T17:13:01.266Z,90.81
2018-11-05T17:15:37.338Z,91.25
2018-11-05T17:18:07.309Z,91.43
2018-11-05T17:20:43.226Z,91.20
2018-11-05T17:23:29.537Z,90.98
2018-11-05T17:25:58.494Z,91.69
2018-11-05T17:28:28.463Z,91.37
2018-11-05T17:31:10.403Z,91.41
2018-11-05T17:33:50.514Z,91.42
2018-11-05T17:36:41.756Z,91.71
2018-11-05T17:39:11.797Z,91.38
2018-11-05T17:41:41.116Z,91.55
2018-11-05T17:44:14.362Z,91.36
2018-11-05T17:46:53.516Z,91.93
2018-11-05T17:52:25.325Z,91.89
2018-11-05T17:55:03.718Z,92.19
2018-11-05T17:57:33.640Z,91.58
2018-11-05T18:00:10.080Z,92.08
2018-11-05T18:02:43.154Z,92.10
2018-11-05T18:05:18.124Z,91.96
2018-11-05T18:07:47.295Z,91.87
2018-11-05T18:10:19.693Z,92.12
2018-11-05T18:12:50.690Z,91.82
2018-11-05T18:15:19.701Z,92.32
2018-11-05T18:17:50.585Z,91.98
2018-11-05T18:20:19.612Z,92.70
2018-11-05T18:22:52.632Z,92.79
2018-11-05T18:25:21.664Z,92.19
2018-11-05T18:27:50.627Z,92.34
2018-11-05T18:30:31.098Z,92.35
2018-11-05T18:33:05.613Z,92.35
2018-11-05T18:35:41.488Z,92.61
2018-11-05T18:38:13.591Z,93.03
2018-11-05T18:40:48.380Z,92.93
2018-11-05T18:43:24.871Z,93.17
2018-11-05T18:45:53.848Z,92.89
2018-11-05T18:48:24.761Z,92.87
2018-11-05T18:51:00.526Z,93.62
2018-11-05T18:53:33.562Z,93.06
2018-11-05T18:56:09.386Z,93.77
2018-11-05T19:01:33.781Z,93.04
2018-11-05T19:04:09.038Z,93.88
2018-11-05T19:06:45.304Z,93.42
2018-11-05T19:09:14.264Z,93.45
2018-11-05T19:11:44.166Z,93.14
2018-11-05T19:14:13.305Z,94.05
2018-11-05T19:16:42.295Z,93.51
2018-11-05T19:19:13.191Z,93.66
2018-11-05T19:21:44.177Z,93.88
2018-11-05T19:24:23.798Z,94.59
2018-11-05T19:26:54.667Z,94.15
2018-11-05T19:29:23.848Z,93.72
2018-11-05T19:31:56.803Z,93.39
2018-11-05T19:34:46.699Z,94.03
2018-11-05T19:37:16.312Z,93.84
2018-11-05T19:39:55.197Z,93.92
2018-11-05T19:42:24.699Z,93.50
2018-11-05T19:44:54.209Z,93.85
2018-11-05T19:47:23.695Z,94.22
2018-11-05T19:49:54.988Z,94.86
2018-11-05T19:52:28.998Z,93.75
2018-11-05T19:54:59.730Z,93.24
2018-11-05T19:57:29.711Z,93.64
2018-11-05T19:59:59.560Z,93.72
2018-11-05T20:02:30.044Z,93.66
2018-11-05T20:05:02.536Z,93.77
2018-11-05T20:07:36.741Z,93.49
2018-11-05T20:10:10.437Z,93.78
2018-11-05T20:12:44.910Z,93.52
2018-11-05T20:15:21.060Z,93.69
2018-11-05T20:17:56.422Z,93.30
2018-11-05T20:20:26.196Z,93.37
2018-11-05T20:22:56.219Z,93.78
2018-11-05T20:25:26.152Z,93.48
2018-11-05T20:27:55.157Z,93.88
2018-11-05T20:30:27.234Z,93.33
2018-11-05T20:32:58.276Z,94.58
2018-11-05T20:35:28.891Z,94.32
2018-11-05T20:38:15.041Z,94.67
2018-11-05T20:40:49.773Z,94.69
2018-11-05T20:43:35.058Z,94.75
2018-11-05T20:46:09.298Z,95.63
2018-11-05T20:48:45.827Z,94.54
2018-11-05T20:51:22.850Z,94.36
2018-11-05T20:53:51.880Z,94.11
2018-11-05T20:56:39.592Z,93.90
2018-11-05T20:59:12.160Z,94.71
2018-11-05T21:01:44.678Z,94.51
2018-11-05T21:04:24.229Z,93.88
2018-11-05T21:06:54.233Z,93.89
2018-11-05T21:09:28.636Z,94.33
2018-11-05T21:11:59.626Z,94.55
2018-11-05T21:14:53.251Z,94.45
2018-11-05T21:17:27.180Z,94.19
2018-11-05T21:22:51.468Z,94.95
2018-11-05T21:25:25.687Z,94.92
2018-11-05T21:27:58.733Z,96.07
2018-11-05T21:30:27.679Z,95.40
2018-11-05T21:33:08.536Z,95.34
2018-11-05T21:35:37.577Z,95.33
2018-11-05T21:38:16.309Z,96.32
2018-11-05T21:40:56.397Z,96.17
2018-11-05T21:43:25.481Z,96.47
2018-11-05T21:45:55.570Z,96.20
2018-11-05T21:48:26.514Z,96.50
2018-11-05T21:51:05.208Z,96.97
2018-11-05T21:56:43.632Z,97.54
2018-11-05T21:59:12.591Z,97.16
2018-11-05T22:01:53.516Z,97.08
2018-11-05T22:04:22.509Z,98.05
2018-11-05T22:06:57.205Z,97.37
2018-11-05T22:09:26.171Z,96.94
2018-11-05T22:12:00.237Z,97.16
2018-11-05T22:14:32.759Z,97.65
2018-11-05T22:20:01.809Z,97.07
2018-11-05T22:22:42.306Z,97.26
2018-11-05T22:25:13.177Z,97.58
2018-11-05T22:27:43.169Z,97.26
2018-11-05T22:30:12.949Z,97.48
2018-11-05T22:32:51.758Z,97.13
2018-11-05T22:35:20.865Z,97.19
2018-11-05T22:37:56.747Z,96.95
2018-11-05T22:40:26.713Z,96.88
2018-11-05T22:45:52.605Z,96.80
2018-11-05T22:48:27.131Z,96.26
2018-11-05T22:51:04.352Z,96.96
2018-11-05T22:53:37.716Z,96.68
2018-11-05T22:56:22.752Z,96.86
2018-11-05T22:58:51.660Z,96.20
2018-11-05T23:01:32.171Z,97.02
2018-11-05T23:04:02.948Z,96.55
2018-11-05T23:06:32.586Z,96.55
2018-11-05T23:09:02.528Z,96.61
2018-11-05T23:11:33.412Z,95.33
2018-11-05T23:14:08.951Z,95.58
2018-11-05T23:16:44.421Z,96.09
2018-11-05T23:19:14.392Z,96.21
2018-11-05T23:21:49.498Z,95.48
2018-11-05T23:24:18.447Z,95.65
2018-11-05T23:26:47.325Z,95.86
2018-11-05T23:29:16.278Z,96.19
2018-11-05T23:31:45.181Z,95.98
2018-11-05T23:34:14.108Z,95.49
2018-11-05T23:36:42.982Z,95.53
2018-11-05T23:39:29.724Z,95.51
2018-11-05T23:42:15.942Z,96.72
2018-11-05T23:44:45.836Z,96.40
2018-11-05T23:47:28.244Z,95.68
2018-11-05T23:49:57.851Z,96.58
2018-11-05T23:55:21.073Z,96.25
2018-11-05T23:57:49.976Z,96.76
